sensor_id;sensor_type;location;lat;lon;timestamp;pressure;altitude;pressure_sealevel;temperature;humidity
69257;BME280;56376;53.356;-1.748;2023-12-20T00:01:31;99586.63;;;6.32;100.00
69257;BME280;56376;53.356;-1.748;2023-12-20T00:03:57;99595.19;;;6.37;100.00
69257;BME280;56376;53.356;-1.748;2023-12-20T00:06:22;99589.16;;;6.37;100.00
69257;BME280;56376;53.356;-1.748;2023-12-20T00:08:48;99572.75;;;6.36;100.00
69257;BME280;56376;53.356;-1.748;2023-12-20T00:11:14;99591.69;;;6.40;100.00
69257;BME280;56376;53.356;-1.748;2023-12-20T00:13:39;99600.34;;;6.40;100.00
69257;BME280;56376;53.356;-1.748;2023-12-20T00:16:05;99582.19;;;6.39;100.00
69257;BME280;56376;53.356;-1.748;2023-12-20T00:18:30;99600.38;;;6.39;100.00
69257;BME280;56376;53.356;-1.748;2023-12-20T00:21:14;99577.88;;;6.39;100.00
69257;BME280;56376;53.356;-1.748;2023-12-20T00:23:40;99584.81;;;6.39;100.00
69257;BME280;56376;53.356;-1.748;2023-12-20T00:26:05;99563.97;;;6.43;100.00
69257;BME280;56376;53.356;-1.748;2023-12-20T00:28:31;99564.97;;;6.36;100.00
69257;BME280;56376;53.356;-1.748;2023-12-20T00:30:56;99581.28;;;6.43;100.00
69257;BME280;56376;53.356;-1.748;2023-12-20T00:33:22;99570.00;;;6.44;100.00
69257;BME280;56376;53.356;-1.748;2023-12-20T00:35:47;99557.00;;;6.45;100.00
69257;BME280;56376;53.356;-1.748;2023-12-20T00:38:13;99558.84;;;6.40;100.00
69257;BME280;56376;53.356;-1.748;2023-12-20T00:40:39;99568.47;;;6.34;100.00
69257;BME280;56376;53.356;-1.748;2023-12-20T00:43:05;99571.91;;;6.34;100.00
69257;BME280;56376;53.356;-1.748;2023-12-20T00:45:30;99561.44;;;6.39;100.00
69257;BME280;56376;53.356;-1.748;2023-12-20T00:47:56;99560.47;;;6.44;100.00
69257;BME280;56376;53.356;-1.748;2023-12-20T00:50:24;99566.69;;;6.36;100.00
69257;BME280;56376;53.356;-1.748;2023-12-20T00:52:50;99546.78;;;6.36;100.00
69257;BME280;56376;53.356;-1.748;2023-12-20T00:55:15;99572.72;;;6.38;100.00
69257;BME280;56376;53.356;-1.748;2023-12-20T00:57:41;99557.09;;;6.39;100.00
69257;BME280;56376;53.356;-1.748;2023-12-20T01:00:07;99564.88;;;6.41;100.00
69257;BME280;56376;53.356;-1.748;2023-12-20T01:02:35;99554.28;;;6.52;100.00
69257;BME280;56376;53.356;-1.748;2023-12-20T01:05:00;99565.56;;;6.50;100.00
69257;BME280;56376;53.356;-1.748;2023-12-20T01:07:26;99546.72;;;6.39;100.00
69257;BME280;56376;53.356;-1.748;2023-12-20T01:09:53;99563.22;;;6.37;100.00
69257;BME280;56376;53.356;-1.748;2023-12-20T01:12:19;99544.06;;;6.44;100.00
69257;BME280;56376;53.356;-1.748;2023-12-20T01:14:45;99535.34;;;6.46;100.00
69257;BME280;56376;53.356;-1.748;2023-12-20T01:17:12;99529.31;;;6.46;100.00
69257;BME280;56376;53.356;-1.748;2023-12-20T01:19:38;99526.66;;;6.49;100.00
69257;BME280;56376;53.356;-1.748;2023-12-20T01:22:03;99532.81;;;6.43;100.00
69257;BME280;56376;53.356;-1.748;2023-12-20T01:24:29;99515.34;;;6.52;100.00
69257;BME280;56376;53.356;-1.748;2023-12-20T01:26:54;99526.56;;;6.54;100.00
69257;BME280;56376;53.356;-1.748;2023-12-20T01:29:20;99541.31;;;6.52;100.00
69257;BME280;56376;53.356;-1.748;2023-12-20T01:31:46;99546.50;;;6.52;100.00
69257;BME280;56376;53.356;-1.748;2023-12-20T01:34:11;99524.88;;;6.51;100.00
69257;BME280;56376;53.356;-1.748;2023-12-20T01:36:37;99547.31;;;6.55;100.00
69257;BME280;56376;53.356;-1.748;2023-12-20T01:39:02;99526.75;;;6.44;100.00
69257;BME280;56376;53.356;-1.748;2023-12-20T01:41:30;99554.34;;;6.48;100.00
69257;BME280;56376;53.356;-1.748;2023-12-20T01:43:55;99550.94;;;6.46;100.00
69257;BME280;56376;53.356;-1.748;2023-12-20T01:46:21;99548.31;;;6.46;100.00
69257;BME280;56376;53.356;-1.748;2023-12-20T01:48:48;99523.28;;;6.45;100.00
69257;BME280;56376;53.356;-1.748;2023-12-20T01:51:14;99516.44;;;6.40;100.00
69257;BME280;56376;53.356;-1.748;2023-12-20T01:53:40;99504.34;;;6.40;100.00
69257;BME280;56376;53.356;-1.748;2023-12-20T01:56:06;99516.44;;;6.40;100.00
69257;BME280;56376;53.356;-1.748;2023-12-20T01:58:32;99518.09;;;6.45;100.00
69257;BME280;56376;53.356;-1.748;2023-12-20T02:00:59;99502.44;;;6.48;100.00
69257;BME280;56376;53.356;-1.748;2023-12-20T02:03:25;99525.66;;;6.55;100.00
69257;BME280;56376;53.356;-1.748;2023-12-20T02:05:50;99507.41;;;6.61;100.00
69257;BME280;56376;53.356;-1.748;2023-12-20T02:08:16;99499.63;;;6.59;100.00
69257;BME280;56376;53.356;-1.748;2023-12-20T02:10:42;99507.50;;;6.56;100.00
69257;BME280;56376;53.356;-1.748;2023-12-20T02:13:08;99516.97;;;6.57;100.00
69257;BME280;56376;53.356;-1.748;2023-12-20T02:15:33;99511.00;;;6.52;100.00
69257;BME280;56376;53.356;-1.748;2023-12-20T02:17:59;99517.88;;;6.55;100.00
69257;BME280;56376;53.356;-1.748;2023-12-20T02:20:24;99514.41;;;6.56;100.00
69257;BME280;56376;53.356;-1.748;2023-12-20T02:22:50;99497.84;;;6.63;100.00
69257;BME280;56376;53.356;-1.748;2023-12-20T02:25:15;99506.63;;;6.56;100.00
69257;BME280;56376;53.356;-1.748;2023-12-20T02:27:41;99513.38;;;6.64;100.00
69257;BME280;56376;53.356;-1.748;2023-12-20T02:30:10;99505.56;;;6.66;100.00
69257;BME280;56376;53.356;-1.748;2023-12-20T02:32:35;99514.09;;;6.71;100.00
69257;BME280;56376;53.356;-1.748;2023-12-20T02:35:01;99500.28;;;6.70;100.00
69257;BME280;56376;53.356;-1.748;2023-12-20T02:37:26;99489.94;;;6.67;100.00
69257;BME280;56376;53.356;-1.748;2023-12-20T02:39:52;99486.56;;;6.64;100.00
69257;BME280;56376;53.356;-1.748;2023-12-20T02:42:17;99497.63;;;6.72;100.00
69257;BME280;56376;53.356;-1.748;2023-12-20T02:44:43;99487.31;;;6.69;100.00
69257;BME280;56376;53.356;-1.748;2023-12-20T02:47:08;99483.03;;;6.66;100.00
69257;BME280;56376;53.356;-1.748;2023-12-20T02:49:34;99502.00;;;6.70;100.00
69257;BME280;56376;53.356;-1.748;2023-12-20T02:51:59;99494.19;;;6.71;100.00
69257;BME280;56376;53.356;-1.748;2023-12-20T02:54:25;99459.53;;;6.74;100.00
69257;BME280;56376;53.356;-1.748;2023-12-20T02:56:50;99474.41;;;6.66;100.00
69257;BME280;56376;53.356;-1.748;2023-12-20T02:59:16;99484.78;;;6.66;100.00
69257;BME280;56376;53.356;-1.748;2023-12-20T03:01:43;99470.91;;;6.67;100.00
69257;BME280;56376;53.356;-1.748;2023-12-20T03:04:08;99462.13;;;6.74;100.00
69257;BME280;56376;53.356;-1.748;2023-12-20T03:06:34;99456.94;;;6.74;100.00
69257;BME280;56376;53.356;-1.748;2023-12-20T03:08:59;99465.63;;;6.73;100.00
69257;BME280;56376;53.356;-1.748;2023-12-20T03:11:29;99455.25;;;6.71;100.00
69257;BME280;56376;53.356;-1.748;2023-12-20T03:13:55;99488.91;;;6.75;100.00
69257;BME280;56376;53.356;-1.748;2023-12-20T03:16:20;99456.09;;;6.72;100.00
69257;BME280;56376;53.356;-1.748;2023-12-20T03:18:46;99461.38;;;6.69;100.00
69257;BME280;56376;53.356;-1.748;2023-12-20T03:21:11;99465.88;;;6.61;100.00
69257;BME280;56376;53.356;-1.748;2023-12-20T03:23:37;99478.84;;;6.61;100.00
69257;BME280;56376;53.356;-1.748;2023-12-20T03:26:03;99470.16;;;6.62;100.00
69257;BME280;56376;53.356;-1.748;2023-12-20T03:28:30;99470.09;;;6.65;100.00
69257;BME280;56376;53.356;-1.748;2023-12-20T03:30:57;99479.56;;;6.67;100.00
69257;BME280;56376;53.356;-1.748;2023-12-20T03:33:23;99478.75;;;6.65;100.00
69257;BME280;56376;53.356;-1.748;2023-12-20T03:35:48;99482.13;;;6.69;100.00
69257;BME280;56376;53.356;-1.748;2023-12-20T03:38:14;99465.66;;;6.70;100.00
69257;BME280;56376;53.356;-1.748;2023-12-20T03:40:39;99483.72;;;6.76;100.00
69257;BME280;56376;53.356;-1.748;2023-12-20T03:43:05;99488.91;;;6.76;100.00
69257;BME280;56376;53.356;-1.748;2023-12-20T03:45:30;99483.56;;;6.82;100.00
69257;BME280;56376;53.356;-1.748;2023-12-20T03:47:56;99499.19;;;6.81;100.00
69257;BME280;56376;53.356;-1.748;2023-12-20T03:50:22;99498.22;;;6.85;100.00
69257;BME280;56376;53.356;-1.748;2023-12-20T03:52:48;99473.22;;;6.81;100.00
69257;BME280;56376;53.356;-1.748;2023-12-20T03:55:13;99511.25;;;6.83;100.00
69257;BME280;56376;53.356;-1.748;2023-12-20T03:57:39;99508.66;;;6.83;100.00
69257;BME280;56376;53.356;-1.748;2023-12-20T04:00:07;99503.41;;;6.85;100.00
69257;BME280;56376;53.356;-1.748;2023-12-20T04:02:39;99493.94;;;6.82;100.00
69257;BME280;56376;53.356;-1.748;2023-12-20T04:05:06;99493.25;;;6.76;100.00
69257;BME280;56376;53.356;-1.748;2023-12-20T04:07:32;99501.78;;;6.81;100.00
69257;BME280;56376;53.356;-1.748;2023-12-20T04:09:58;99504.41;;;6.79;100.00
69257;BME280;56376;53.356;-1.748;2023-12-20T04:12:24;99490.50;;;6.83;100.00
69257;BME280;56376;53.356;-1.748;2023-12-20T04:14:50;99496.44;;;6.88;100.00
69257;BME280;56376;53.356;-1.748;2023-12-20T04:17:15;99480.13;;;6.82;100.00
69257;BME280;56376;53.356;-1.748;2023-12-20T04:19:42;99473.22;;;6.81;100.00
69257;BME280;56376;53.356;-1.748;2023-12-20T04:22:08;99500.88;;;6.83;100.00
69257;BME280;56376;53.356;-1.748;2023-12-20T04:24:34;99474.94;;;6.80;100.00
69257;BME280;56376;53.356;-1.748;2023-12-20T04:27:00;99479.13;;;6.87;100.00
69257;BME280;56376;53.356;-1.748;2023-12-20T04:29:25;99465.28;;;6.87;100.00
69257;BME280;56376;53.356;-1.748;2023-12-20T04:31:51;99460.00;;;6.91;100.00
69257;BME280;56376;53.356;-1.748;2023-12-20T04:34:17;99463.53;;;6.89;100.00
69257;BME280;56376;53.356;-1.748;2023-12-20T04:36:43;99462.59;;;6.91;100.00
69257;BME280;56376;53.356;-1.748;2023-12-20T04:39:08;99473.00;;;6.91;100.00
69257;BME280;56376;53.356;-1.748;2023-12-20T04:41:34;99472.34;;;6.82;100.00
69257;BME280;56376;53.356;-1.748;2023-12-20T04:43:59;99453.97;;;6.89;100.00
69257;BME280;56376;53.356;-1.748;2023-12-20T04:46:26;99478.25;;;6.88;100.00
69257;BME280;56376;53.356;-1.748;2023-12-20T04:48:51;99486.91;;;6.87;100.00
69257;BME280;56376;53.356;-1.748;2023-12-20T04:51:17;99483.50;;;6.85;100.00
69257;BME280;56376;53.356;-1.748;2023-12-20T04:53:43;99478.28;;;6.87;100.00
69257;BME280;56376;53.356;-1.748;2023-12-20T04:56:08;99491.19;;;6.90;100.00
69257;BME280;56376;53.356;-1.748;2023-12-20T04:58:34;99462.69;;;6.87;100.00
69257;BME280;56376;53.356;-1.748;2023-12-20T05:00:59;99475.50;;;6.94;100.00
69257;BME280;56376;53.356;-1.748;2023-12-20T05:03:25;99499.72;;;6.97;100.00
69257;BME280;56376;53.356;-1.748;2023-12-20T05:05:50;99485.03;;;6.94;100.00
69257;BME280;56376;53.356;-1.748;2023-12-20T05:08:16;99490.22;;;6.96;100.00
69257;BME280;56376;53.356;-1.748;2023-12-20T05:10:42;99470.31;;;6.94;100.00
69257;BME280;56376;53.356;-1.748;2023-12-20T05:13:07;99486.00;;;6.90;100.00
69257;BME280;56376;53.356;-1.748;2023-12-20T05:15:33;99495.53;;;6.89;100.00
69257;BME280;56376;53.356;-1.748;2023-12-20T05:17:58;99510.44;;;6.80;100.00
69257;BME280;56376;53.356;-1.748;2023-12-20T05:20:25;99501.75;;;6.82;100.00
69257;BME280;56376;53.356;-1.748;2023-12-20T05:22:50;99505.91;;;6.89;100.00
69257;BME280;56376;53.356;-1.748;2023-12-20T05:25:16;99512.94;;;6.86;100.00
69257;BME280;56376;53.356;-1.748;2023-12-20T05:27:42;99509.41;;;6.88;100.00
69257;BME280;56376;53.356;-1.748;2023-12-20T05:30:08;99500.81;;;6.86;100.00
69257;BME280;56376;53.356;-1.748;2023-12-20T05:32:33;99506.75;;;6.90;100.00
69257;BME280;56376;53.356;-1.748;2023-12-20T05:34:59;99498.09;;;6.91;100.00
69257;BME280;56376;53.356;-1.748;2023-12-20T05:37:24;99518.81;;;6.92;100.00
69257;BME280;56376;53.356;-1.748;2023-12-20T05:39:50;99498.06;;;6.92;100.00
69257;BME280;56376;53.356;-1.748;2023-12-20T05:42:15;99488.66;;;6.87;100.00
69257;BME280;56376;53.356;-1.748;2023-12-20T05:44:40;99486.09;;;6.85;100.00
69257;BME280;56376;53.356;-1.748;2023-12-20T05:47:06;99490.38;;;6.88;100.00
69257;BME280;56376;53.356;-1.748;2023-12-20T05:49:31;99502.50;;;6.87;100.00
69257;BME280;56376;53.356;-1.748;2023-12-20T05:51:57;99489.41;;;6.93;100.00
69257;BME280;56376;53.356;-1.748;2023-12-20T05:54:22;99487.56;;;6.97;100.00
69257;BME280;56376;53.356;-1.748;2023-12-20T05:56:48;99502.38;;;6.93;100.00
69257;BME280;56376;53.356;-1.748;2023-12-20T05:59:15;99491.00;;;6.98;100.00
69257;BME280;56376;53.356;-1.748;2023-12-20T06:01:40;99490.25;;;6.94;100.00
69257;BME280;56376;53.356;-1.748;2023-12-20T06:04:06;99471.16;;;6.97;100.00
69257;BME280;56376;53.356;-1.748;2023-12-20T06:06:31;99480.59;;;6.99;100.00
69257;BME280;56376;53.356;-1.748;2023-12-20T06:08:57;99482.25;;;7.03;100.00
69257;BME280;56376;53.356;-1.748;2023-12-20T06:11:23;99476.19;;;7.03;100.00
69257;BME280;56376;53.356;-1.748;2023-12-20T06:13:48;99467.63;;;6.99;100.00
69257;BME280;56376;53.356;-1.748;2023-12-20T06:16:16;99464.19;;;6.99;100.00
69257;BME280;56376;53.356;-1.748;2023-12-20T06:18:42;99468.47;;;7.00;100.00
69257;BME280;56376;53.356;-1.748;2023-12-20T06:21:07;99476.34;;;6.95;100.00
69257;BME280;56376;53.356;-1.748;2023-12-20T06:23:33;99490.22;;;6.96;100.00
69257;BME280;56376;53.356;-1.748;2023-12-20T06:25:58;99486.81;;;6.92;100.00
69257;BME280;56376;53.356;-1.748;2023-12-20T06:28:24;99505.81;;;6.96;100.00
69257;BME280;56376;53.356;-1.748;2023-12-20T06:30:50;99504.97;;;6.93;100.00
69257;BME280;56376;53.356;-1.748;2023-12-20T06:33:17;99491.81;;;7.01;100.00
69257;BME280;56376;53.356;-1.748;2023-12-20T06:35:44;99489.06;;;7.07;100.00
69257;BME280;56376;53.356;-1.748;2023-12-20T06:38:09;99480.53;;;7.02;100.00
69257;BME280;56376;53.356;-1.748;2023-12-20T06:40:34;99478.69;;;7.07;100.00
69257;BME280;56376;53.356;-1.748;2023-12-20T06:43:00;99497.78;;;7.05;100.00
69257;BME280;56376;53.356;-1.748;2023-12-20T06:45:25;99489.88;;;7.11;100.00
69257;BME280;56376;53.356;-1.748;2023-12-20T06:47:51;99494.25;;;7.07;100.00
69257;BME280;56376;53.356;-1.748;2023-12-20T06:50:35;99498.63;;;7.07;100.00
69257;BME280;56376;53.356;-1.748;2023-12-20T06:53:05;99465.84;;;7.01;100.00
69257;BME280;56376;53.356;-1.748;2023-12-20T06:55:33;99477.00;;;7.06;100.00
69257;BME280;56376;53.356;-1.748;2023-12-20T06:57:58;99489.06;;;7.07;100.00
69257;BME280;56376;53.356;-1.748;2023-12-20T07:00:26;99494.25;;;7.07;100.00
69257;BME280;56376;53.356;-1.748;2023-12-20T07:02:51;99486.66;;;7.00;100.00
69257;BME280;56376;53.356;-1.748;2023-12-20T07:05:17;99504.72;;;7.04;100.00
69257;BME280;56376;53.356;-1.748;2023-12-20T07:07:45;99483.97;;;7.03;100.00
69257;BME280;56376;53.356;-1.748;2023-12-20T07:10:31;99496.22;;;6.98;100.00
69257;BME280;56376;53.356;-1.748;2023-12-20T07:12:56;99500.53;;;6.99;100.00
69257;BME280;56376;53.356;-1.748;2023-12-20T07:15:22;99485.63;;;7.07;100.00
69257;BME280;56376;53.356;-1.748;2023-12-20T07:17:48;99478.75;;;7.04;100.00
69257;BME280;56376;53.356;-1.748;2023-12-20T07:20:15;99464.13;;;7.00;100.00
69257;BME280;56376;53.356;-1.748;2023-12-20T07:22:41;99468.47;;;7.00;100.00
69257;BME280;56376;53.356;-1.748;2023-12-20T07:25:07;99471.97;;;6.99;100.00
69257;BME280;56376;53.356;-1.748;2023-12-20T07:27:33;99480.59;;;6.99;100.00
69257;BME280;56376;53.356;-1.748;2023-12-20T07:29:58;99496.97;;;7.03;100.00
69257;BME280;56376;53.356;-1.748;2023-12-20T07:32:24;99496.94;;;7.04;100.00
69257;BME280;56376;53.356;-1.748;2023-12-20T07:34:50;99502.38;;;6.93;100.00
69257;BME280;56376;53.356;-1.748;2023-12-20T07:37:15;99498.97;;;6.90;100.00
69257;BME280;56376;53.356;-1.748;2023-12-20T07:39:42;99507.66;;;6.90;100.00
69257;BME280;56376;53.356;-1.748;2023-12-20T07:42:08;99515.31;;;6.95;100.00
69257;BME280;56376;53.356;-1.748;2023-12-20T07:44:34;99513.69;;;6.91;100.00
69257;BME280;56376;53.356;-1.748;2023-12-20T07:47:01;99500.72;;;6.89;100.00
69257;BME280;56376;53.356;-1.748;2023-12-20T07:49:28;99509.38;;;6.90;100.00
69257;BME280;56376;53.356;-1.748;2023-12-20T07:51:53;99500.72;;;6.89;100.00
69257;BME280;56376;53.356;-1.748;2023-12-20T07:54:19;99493.75;;;6.93;100.00
69257;BME280;56376;53.356;-1.748;2023-12-20T07:56:46;99498.13;;;6.89;100.00
69257;BME280;56376;53.356;-1.748;2023-12-20T07:59:12;99493.69;;;6.94;100.00
69257;BME280;56376;53.356;-1.748;2023-12-20T08:01:37;99498.00;;;6.96;100.00
69257;BME280;56376;53.356;-1.748;2023-12-20T08:04:03;99505.81;;;6.94;100.00
69257;BME280;56376;53.356;-1.748;2023-12-20T08:06:28;99506.66;;;6.94;100.00
69257;BME280;56376;53.356;-1.748;2023-12-20T08:08:54;99492.88;;;6.92;100.00
69257;BME280;56376;53.356;-1.748;2023-12-20T08:11:19;99511.94;;;6.91;100.00
69257;BME280;56376;53.356;-1.748;2023-12-20T08:13:45;99521.41;;;6.94;100.00
69257;BME280;56376;53.356;-1.748;2023-12-20T08:16:10;99519.72;;;6.91;100.00
69257;BME280;56376;53.356;-1.748;2023-12-20T08:18:38;99521.44;;;6.92;100.00
69257;BME280;56376;53.356;-1.748;2023-12-20T08:21:23;99510.78;;;7.05;100.00
69257;BME280;56376;53.356;-1.748;2023-12-20T08:23:48;99512.53;;;7.04;100.00
69257;BME280;56376;53.356;-1.748;2023-12-20T08:26:18;99515.13;;;7.04;100.00
69257;BME280;56376;53.356;-1.748;2023-12-20T08:28:46;99532.47;;;7.02;100.00
69257;BME280;56376;53.356;-1.748;2023-12-20T08:31:16;99523.84;;;7.02;100.00
69257;BME280;56376;53.356;-1.748;2023-12-20T08:33:44;99510.91;;;6.99;100.00
69257;BME280;56376;53.356;-1.748;2023-12-20T08:36:10;99499.72;;;6.95;100.00
69257;BME280;56376;53.356;-1.748;2023-12-20T08:38:35;99501.38;;;6.99;100.00
69257;BME280;56376;53.356;-1.748;2023-12-20T08:41:01;99498.03;;;6.94;100.00
69257;BME280;56376;53.356;-1.748;2023-12-20T08:43:28;99496.25;;;6.96;100.00
69257;BME280;56376;53.356;-1.748;2023-12-20T08:45:54;99501.38;;;6.99;100.00
69257;BME280;56376;53.356;-1.748;2023-12-20T08:48:19;99514.22;;;7.05;100.00
69257;BME280;56376;53.356;-1.748;2023-12-20T08:50:45;99515.97;;;7.05;100.00
69257;BME280;56376;53.356;-1.748;2023-12-20T08:53:11;99495.19;;;7.05;100.00
69257;BME280;56376;53.356;-1.748;2023-12-20T08:55:37;99508.94;;;7.10;100.00
69257;BME280;56376;53.356;-1.748;2023-12-20T08:58:02;99501.97;;;7.12;100.00
69257;BME280;56376;53.356;-1.748;2023-12-20T09:00:28;99493.06;;;7.22;100.00
69257;BME280;56376;53.356;-1.748;2023-12-20T09:02:54;99492.22;;;7.22;100.00
69257;BME280;56376;53.356;-1.748;2023-12-20T09:05:20;99502.59;;;7.23;100.00
69257;BME280;56376;53.356;-1.748;2023-12-20T09:07:45;99496.50;;;7.24;100.00
69257;BME280;56376;53.356;-1.748;2023-12-20T09:10:11;99488.81;;;7.18;100.00
69257;BME280;56376;53.356;-1.748;2023-12-20T09:12:36;99486.22;;;7.18;100.00
69257;BME280;56376;53.356;-1.748;2023-12-20T09:15:05;99482.00;;;7.14;100.00
69257;BME280;56376;53.356;-1.748;2023-12-20T09:17:30;99493.03;;;7.24;100.00
69257;BME280;56376;53.356;-1.748;2023-12-20T09:19:56;99489.63;;;7.20;100.00
69257;BME280;56376;53.356;-1.748;2023-12-20T09:22:22;99495.81;;;7.16;100.00
69257;BME280;56376;53.356;-1.748;2023-12-20T09:24:47;99491.56;;;7.12;100.00
69257;BME280;56376;53.356;-1.748;2023-12-20T09:27:13;99488.22;;;7.07;100.00
69257;BME280;56376;53.356;-1.748;2023-12-20T09:29:39;99482.13;;;7.08;100.00
69257;BME280;56376;53.356;-1.748;2023-12-20T09:32:05;99473.41;;;7.10;100.00
69257;BME280;56376;53.356;-1.748;2023-12-20T09:34:30;99470.78;;;7.13;100.00
69257;BME280;56376;53.356;-1.748;2023-12-20T09:36:56;99477.84;;;7.07;100.00
69257;BME280;56376;53.356;-1.748;2023-12-20T09:39:21;99487.41;;;7.05;100.00
69257;BME280;56376;53.356;-1.748;2023-12-20T09:42:03;99484.59;;;7.14;100.00
69257;BME280;56376;53.356;-1.748;2023-12-20T09:44:29;99479.41;;;7.14;100.00
69257;BME280;56376;53.356;-1.748;2023-12-20T09:46:56;99475.91;;;7.15;100.00
69257;BME280;56376;53.356;-1.748;2023-12-20T09:49:22;99464.81;;;7.08;100.00
69257;BME280;56376;53.356;-1.748;2023-12-20T09:51:50;99459.56;;;7.10;100.00
69257;BME280;56376;53.356;-1.748;2023-12-20T09:54:19;99472.63;;;7.08;100.00
69257;BME280;56376;53.356;-1.748;2023-12-20T09:56:45;99453.50;;;7.11;100.00
69257;BME280;56376;53.356;-1.748;2023-12-20T09:59:11;99463.81;;;7.14;100.00
69257;BME280;56376;53.356;-1.748;2023-12-20T10:01:38;99465.38;;;7.21;100.00
69257;BME280;56376;53.356;-1.748;2023-12-20T10:04:05;99459.38;;;7.19;100.00
69257;BME280;56376;53.356;-1.748;2023-12-20T10:06:44;99465.41;;;7.20;100.00
69257;BME280;56376;53.356;-1.748;2023-12-20T10:09:10;99468.81;;;7.23;100.00
69257;BME280;56376;53.356;-1.748;2023-12-20T10:11:39;99455.59;;;7.32;100.00
69257;BME280;56376;53.356;-1.748;2023-12-20T10:14:07;99446.16;;;7.28;100.00
69257;BME280;56376;53.356;-1.748;2023-12-20T10:16:33;99450.44;;;7.31;100.00
69257;BME280;56376;53.356;-1.748;2023-12-20T10:19:00;99440.72;;;7.37;100.00
69257;BME280;56376;53.356;-1.748;2023-12-20T10:21:30;99439.91;;;7.35;100.00
69257;BME280;56376;53.356;-1.748;2023-12-20T10:23:56;99448.34;;;7.45;100.00
69257;BME280;56376;53.356;-1.748;2023-12-20T10:26:26;99432.75;;;7.45;100.00
69257;BME280;56376;53.356;-1.748;2023-12-20T10:29:00;99425.00;;;7.44;100.00
69257;BME280;56376;53.356;-1.748;2023-12-20T10:31:46;99443.13;;;7.47;100.00
69257;BME280;56376;53.356;-1.748;2023-12-20T10:34:12;99421.31;;;7.51;100.00
69257;BME280;56376;53.356;-1.748;2023-12-20T10:36:37;99405.72;;;7.51;100.00
69257;BME280;56376;53.356;-1.748;2023-12-20T10:39:05;99408.31;;;7.52;100.00
69257;BME280;56376;53.356;-1.748;2023-12-20T10:41:52;99409.84;;;7.59;100.00
69257;BME280;56376;53.356;-1.748;2023-12-20T10:44:18;99398.72;;;7.54;100.00
69257;BME280;56376;53.356;-1.748;2023-12-20T10:46:44;99390.72;;;7.62;100.00
69257;BME280;56376;53.356;-1.748;2023-12-20T10:49:17;99376.88;;;7.62;100.00
69257;BME280;56376;53.356;-1.748;2023-12-20T10:51:44;99393.25;;;7.65;100.00
69257;BME280;56376;53.356;-1.748;2023-12-20T10:54:11;99381.97;;;7.66;100.00
69257;BME280;56376;53.356;-1.748;2023-12-20T10:56:38;99390.44;;;7.73;100.00
69257;BME280;56376;53.356;-1.748;2023-12-20T10:59:03;99379.00;;;7.78;100.00
69257;BME280;56376;53.356;-1.748;2023-12-20T11:01:32;99378.34;;;7.72;100.00
69257;BME280;56376;53.356;-1.748;2023-12-20T11:03:58;99370.63;;;7.69;100.00
69257;BME280;56376;53.356;-1.748;2023-12-20T11:06:43;99367.88;;;7.73;100.00
69257;BME280;56376;53.356;-1.748;2023-12-20T11:09:24;99361.19;;;7.65;100.00
69257;BME280;56376;53.356;-1.748;2023-12-20T11:14:38;99354.25;;;7.65;100.00
69257;BME280;56376;53.356;-1.748;2023-12-20T11:17:09;99351.56;;;7.68;100.00
69257;BME280;56376;53.356;-1.748;2023-12-20T11:22:31;99360.19;;;7.70;100.00
69257;BME280;56376;53.356;-1.748;2023-12-20T11:25:10;99334.91;;;7.75;100.00
69257;BME280;56376;53.356;-1.748;2023-12-20T11:27:43;99359.84;;;7.83;100.00
69257;BME280;56376;53.356;-1.748;2023-12-20T11:30:09;99333.88;;;7.81;100.00
69257;BME280;56376;53.356;-1.748;2023-12-20T11:32:36;99333.03;;;7.80;100.00
69257;BME280;56376;53.356;-1.748;2023-12-20T11:35:22;99337.28;;;7.83;100.00
69257;BME280;56376;53.356;-1.748;2023-12-20T11:37:49;99327.72;;;7.84;100.00
69257;BME280;56376;53.356;-1.748;2023-12-20T11:40:16;99299.13;;;7.84;100.00
69257;BME280;56376;53.356;-1.748;2023-12-20T11:42:48;99313.75;;;7.88;100.00
69257;BME280;56376;53.356;-1.748;2023-12-20T11:45:15;99305.44;;;7.75;100.00
69257;BME280;56376;53.356;-1.748;2023-12-20T11:47:46;99280.97;;;7.82;100.00
69257;BME280;56376;53.356;-1.748;2023-12-20T11:50:12;99289.66;;;7.81;100.00
69257;BME280;56376;53.356;-1.748;2023-12-20T11:52:38;99274.66;;;7.91;100.00
69257;BME280;56376;53.356;-1.748;2023-12-20T11:55:04;99274.75;;;7.88;100.00
69257;BME280;56376;53.356;-1.748;2023-12-20T11:57:31;99265.19;;;7.88;100.00
69257;BME280;56376;53.356;-1.748;2023-12-20T11:59:57;99270.47;;;7.87;100.00
69257;BME280;56376;53.356;-1.748;2023-12-20T12:02:22;99260.88;;;7.89;100.00
69257;BME280;56376;53.356;-1.748;2023-12-20T12:04:49;99258.09;;;7.93;100.00
69257;BME280;56376;53.356;-1.748;2023-12-20T12:07:18;99264.13;;;7.95;100.00
69257;BME280;56376;53.356;-1.748;2023-12-20T12:09:45;99244.97;;;7.98;100.00
69257;BME280;56376;53.356;-1.748;2023-12-20T12:12:12;99247.56;;;7.98;100.00
69257;BME280;56376;53.356;-1.748;2023-12-20T12:14:38;99251.88;;;7.99;100.00
69257;BME280;56376;53.356;-1.748;2023-12-20T12:17:10;99239.66;;;8.01;100.00
69257;BME280;56376;53.356;-1.748;2023-12-20T12:20:01;99250.00;;;8.04;100.00
69257;BME280;56376;53.356;-1.748;2023-12-20T12:22:27;99231.78;;;8.04;100.00
69257;BME280;56376;53.356;-1.748;2023-12-20T12:24:53;99223.03;;;8.07;100.00
69257;BME280;56376;53.356;-1.748;2023-12-20T12:27:19;99212.53;;;8.10;100.00
69257;BME280;56376;53.356;-1.748;2023-12-20T12:30:12;99212.63;;;8.07;100.00
69257;BME280;56376;53.356;-1.748;2023-12-20T12:32:38;99200.50;;;8.06;100.00
69257;BME280;56376;53.356;-1.748;2023-12-20T12:35:04;99205.59;;;8.09;100.00
69257;BME280;56376;53.356;-1.748;2023-12-20T12:37:35;99182.44;;;8.01;100.00
69257;BME280;56376;53.356;-1.748;2023-12-20T12:40:04;99179.06;;;7.99;100.00
69257;BME280;56376;53.356;-1.748;2023-12-20T12:42:30;99196.25;;;8.03;100.00
69257;BME280;56376;53.356;-1.748;2023-12-20T12:44:56;99174.50;;;8.06;100.00
69257;BME280;56376;53.356;-1.748;2023-12-20T12:47:21;99162.25;;;8.09;100.00
69257;BME280;56376;53.356;-1.748;2023-12-20T12:49:49;99155.44;;;8.05;100.00
69257;BME280;56376;53.356;-1.748;2023-12-20T12:52:16;99156.41;;;8.02;100.00
69257;BME280;56376;53.356;-1.748;2023-12-20T12:54:42;99141.69;;;8.01;100.00